Time;durP1;ratioP1;P1;durP2;ratioP2;P2;SDS_P1;SDS_P2;PMS_P1;PMS_P2;Temp;Humidity;BMP_temperature;BMP_pressure;BME280_temperature;BME280_humidity;BME280_pressure;Samples;Min_cycle;Max_cycle;Signal;HPM_P1;HPM_P2
2023/10/02 00:05:07;;;;;;;18.13;12.18;;;22.20;73.00;;;;;;6213917;23;20040;-77
2023/10/02 00:10:02;;;;;;;16.15;11.90;;;22.20;72.60;;;;;;6211957;23;20031;-77
2023/10/02 00:12:31;;;;;;;19.98;12.70;;;22.20;72.50;;;;;;6213882;23;20070;-77
2023/10/02 00:15:12;;;;;;;19.98;12.13;;;22.20;72.20;;;;;;6213503;23;20405;-77
2023/10/02 00:17:43;;;;;;;20.67;12.40;;;22.20;72.20;;;;;;6214026;23;19997;-78
2023/10/02 00:20:21;;;;;;;16.63;11.73;;;22.20;72.20;;;;;;6214375;23;20061;-78
2023/10/02 00:22:47;;;;;;;17.75;12.93;;;22.20;72.40;;;;;;6214215;23;20004;-78
2023/10/02 00:25:21;;;;;;;19.40;12.50;;;22.20;72.00;;;;;;6213651;23;20407;-77
2023/10/02 00:27:50;;;;;;;16.63;12.75;;;22.20;72.40;;;;;;6213968;23;20009;-79
2023/10/02 00:30:36;;;;;;;18.27;12.73;;;22.20;72.20;;;;;;6213994;23;20008;-79
2023/10/02 00:33:02;;;;;;;18.33;13.35;;;22.20;72.70;;;;;;6214404;23;20029;-79
2023/10/02 00:35:30;;;;;;;17.23;13.02;;;22.20;72.20;;;;;;6214326;23;20009;-78
2023/10/02 00:37:57;;;;;;;18.50;12.75;;;22.20;72.40;;;;;;6213758;23;20449;-78
2023/10/02 00:40:26;;;;;;;20.27;13.68;;;22.10;72.50;;;;;;6214066;23;20007;-78
2023/10/02 00:43:33;;;;;;;17.48;13.57;;;22.10;72.20;;;;;;6214087;23;20023;-78
2023/10/02 00:45:49;;;;;;;19.15;13.52;;;22.10;72.30;;;;;;6213839;23;20096;-78
2023/10/02 00:48:33;;;;;;;16.83;12.40;;;22.10;72.40;;;;;;6213885;23;20001;-78
2023/10/02 00:51:05;;;;;;;22.63;12.30;;;22.10;72.30;;;;;;6213881;23;20012;-78
2023/10/02 00:53:48;;;;;;;16.05;11.40;;;22.00;71.80;;;;;;6214492;23;20059;-77
2023/10/02 00:56:28;;;;;;;16.15;11.07;;;22.00;71.60;;;;;;6214289;23;20080;-77
2023/10/02 00:59:00;;;;;;;18.13;10.85;;;21.90;71.60;;;;;;6190404;23;19996;-78
2023/10/02 01:01:35;;;;;;;13.10;10.45;;;21.90;71.80;;;;;;6214354;23;20253;-77
2023/10/02 01:04:23;;;;;;;14.50;11.23;;;21.90;71.20;;;;;;6214284;23;20500;-78
2023/10/02 01:06:54;;;;;;;14.50;10.73;;;21.90;71.20;;;;;;6216357;23;20000;-78
2023/10/02 01:09:25;;;;;;;17.05;10.80;;;21.90;71.10;;;;;;6216049;23;20021;-78
2023/10/02 01:11:55;;;;;;;14.57;9.80;;;21.90;71.10;;;;;;6215938;23;20135;-78
2023/10/02 01:15:11;;;;;;;15.10;8.98;;;21.90;70.70;;;;;;6215963;23;20066;-78
2023/10/02 01:17:10;;;;;;;12.57;8.55;;;21.90;70.80;;;;;;6199657;23;20011;-77
2023/10/02 01:19:52;;;;;;;13.05;9.52;;;21.90;70.30;;;;;;6215705;23;20001;-77
2023/10/02 01:22:26;;;;;;;13.48;9.57;;;21.90;70.20;;;;;;6215719;23;20054;-77
2023/10/02 01:25:14;;;;;;;15.10;10.43;;;21.80;70.30;;;;;;6215593;23;20112;-77
2023/10/02 01:27:40;;;;;;;14.90;9.25;;;21.80;70.40;;;;;;6215772;23;20009;-78
2023/10/02 01:30:16;;;;;;;16.27;9.05;;;21.70;70.20;;;;;;6215086;23;20015;-77
2023/10/02 01:33:21;;;;;;;13.13;8.98;;;21.70;70.10;;;;;;6215535;23;20027;-77
2023/10/02 01:35:54;;;;;;;15.32;9.48;;;21.70;70.10;;;;;;6215089;23;20442;-77
2023/10/02 01:38:41;;;;;;;13.70;9.68;;;21.60;69.90;;;;;;6216819;23;20000;-77
2023/10/02 01:41:08;;;;;;;13.07;9.68;;;21.70;70.00;;;;;;6215614;23;20036;-77
2023/10/02 01:43:44;;;;;;;13.30;9.05;;;21.60;69.70;;;;;;6188695;23;20009;-77
2023/10/02 01:46:11;;;;;;;12.88;9.00;;;21.60;70.00;;;;;;6215438;23;20032;-77
2023/10/02 01:48:41;;;;;;;13.93;9.45;;;21.60;69.90;;;;;;6214850;23;20076;-76
2023/10/02 01:51:25;;;;;;;13.38;9.75;;;21.60;70.00;;;;;;6214634;23;20462;-78
2023/10/02 01:54:04;;;;;;;14.82;11.13;;;21.60;70.00;;;;;;6214990;23;20008;-76
2023/10/02 01:56:31;;;;;;;17.00;10.48;;;21.60;70.30;;;;;;6215354;23;20026;-78
2023/10/02 01:59:11;;;;;;;11.88;10.35;;;21.60;70.60;;;;;;6215150;23;20404;-77
2023/10/02 02:01:52;;;;;;;12.00;10.40;;;21.50;70.50;;;;;;6215308;23;20007;-77
2023/10/02 02:04:18;;;;;;;15.05;11.52;;;21.60;70.60;;;;;;6215364;23;20450;-78
2023/10/02 02:06:52;;;;;;;16.00;11.68;;;21.50;70.60;;;;;;6214655;23;20381;-77
2023/10/02 02:09:25;;;;;;;13.20;11.52;;;21.50;70.80;;;;;;6214958;23;20510;-77
2023/10/02 02:12:10;;;;;;;16.55;11.75;;;21.50;70.80;;;;;;6214828;23;20062;-77
2023/10/02 02:14:50;;;;;;;18.25;11.55;;;21.40;70.90;;;;;;6188297;23;20005;-78
2023/10/02 02:17:23;;;;;;;16.60;12.00;;;21.40;71.20;;;;;;6214948;23;20048;-78
2023/10/02 02:19:49;;;;;;;14.20;12.07;;;21.40;71.90;;;;;;6215787;23;20004;-77
2023/10/02 02:22:17;;;;;;;18.17;12.25;;;21.40;71.70;;;;;;6217554;23;20011;-78
2023/10/02 02:24:44;;;;;;;14.18;12.43;;;21.40;71.60;;;;;;6219189;23;19997;-77
2023/10/02 02:27:10;;;;;;;18.27;12.48;;;21.30;71.70;;;;;;6238577;23;20047;-78
2023/10/02 02:29:38;;;;;;;16.88;12.27;;;21.30;71.70;;;;;;6225129;23;20005;-78
2023/10/02 02:32:07;;;;;;;16.75;13.27;;;21.30;72.00;;;;;;6215427;23;20163;-78
2023/10/02 02:34:33;;;;;;;18.33;12.77;;;21.30;72.00;;;;;;6214967;23;19997;-78
2023/10/02 02:36:59;;;;;;;18.70;12.57;;;21.30;73.00;;;;;;6215294;23;20049;-77
2023/10/02 02:39:27;;;;;;;23.48;12.50;;;21.30;72.30;;;;;;6214869;23;20008;-78
2023/10/02 02:44:46;;;;;;;13.93;11.90;;;21.30;72.70;;;;;;6215977;23;20174;-78
2023/10/02 02:47:17;;;;;;;18.33;11.50;;;21.20;71.90;;;;;;6214781;23;20012;-78
2023/10/02 02:49:51;;;;;;;16.20;11.32;;;21.20;72.00;;;;;;6214974;23;20008;-79
2023/10/02 02:52:19;;;;;;;14.25;10.00;;;21.10;71.70;;;;;;6215011;23;20040;-78
2023/10/02 02:54:47;;;;;;;13.63;9.98;;;21.00;71.90;;;;;;6215072;23;20001;-79
2023/10/02 02:57:24;;;;;;;13.60;10.32;;;21.00;71.60;;;;;;6214888;23;20001;-76
2023/10/02 02:59:52;;;;;;;15.80;9.57;;;21.00;71.70;;;;;;6214992;23;20005;-77
2023/10/02 03:02:22;;;;;;;13.50;9.07;;;20.90;71.70;;;;;;6215106;23;20008;-77
2023/10/02 03:04:50;;;;;;;14.05;9.60;;;21.00;72.20;;;;;;6214896;23;20076;-77
2023/10/02 03:07:29;;;;;;;11.80;9.48;;;21.00;71.50;;;;;;6214702;23;20008;-79
2023/10/02 03:09:58;;;;;;;13.63;10.07;;;21.00;71.30;;;;;;6190510;23;20012;-77
2023/10/02 03:12:24;;;;;;;13.13;9.68;;;21.00;71.40;;;;;;6214814;23;20327;-78
2023/10/02 03:14:54;;;;;;;12.93;9.27;;;21.00;71.10;;;;;;6214384;23;20091;-77
2023/10/02 03:17:28;;;;;;;12.60;9.65;;;21.10;71.20;;;;;;6214756;23;20083;-78
2023/10/02 03:20:00;;;;;;;13.43;10.20;;;21.10;71.20;;;;;;6214773;23;20387;-78
2023/10/02 03:22:27;;;;;;;16.70;9.73;;;21.00;71.40;;;;;;6214532;23;20008;-78
2023/10/02 03:24:57;;;;;;;15.27;9.85;;;21.10;70.90;;;;;;6214214;23;20132;-78
2023/10/02 03:27:26;;;;;;;15.80;10.30;;;21.10;70.70;;;;;;6214073;23;20005;-77
2023/10/02 03:29:52;;;;;;;13.32;9.68;;;21.10;70.70;;;;;;6214230;23;20008;-77
2023/10/02 03:32:18;;;;;;;15.82;9.88;;;21.10;70.60;;;;;;6214614;23;20027;-78
2023/10/02 03:34:48;;;;;;;15.18;9.85;;;21.00;70.60;;;;;;6214417;23;20000;-77
2023/10/02 03:37:15;;;;;;;17.50;9.30;;;21.00;70.60;;;;;;6214652;23;20080;-78
2023/10/02 03:39:52;;;;;;;12.88;9.82;;;21.00;70.60;;;;;;6214503;23;20039;-78
2023/10/02 03:42:22;;;;;;;15.00;9.18;;;20.90;70.60;;;;;;6214473;23;20004;-78
2023/10/02 03:44:58;;;;;;;12.52;9.68;;;20.90;70.50;;;;;;6214275;23;20000;-77
2023/10/02 03:47:25;;;;;;;13.88;8.93;;;20.90;70.80;;;;;;6214298;23;20001;-78
2023/10/02 03:49:52;;;;;;;13.68;9.50;;;21.00;70.60;;;;;;6213851;23;20015;-78
2023/10/02 03:52:18;;;;;;;12.88;9.88;;;21.00;70.40;;;;;;6214206;23;20465;-77
2023/10/02 03:54:45;;;;;;;13.20;9.10;;;21.00;70.40;;;;;;6214459;23;20005;-79
2023/10/02 03:57:37;;;;;;;13.57;9.70;;;21.00;70.10;;;;;;6214503;23;20001;-77
2023/10/02 04:00:09;;;;;;;14.85;9.25;;;21.00;69.90;;;;;;6214608;23;20012;-77
2023/10/02 04:02:36;;;;;;;13.23;8.63;;;21.00;69.90;;;;;;6214401;23;20331;-77
2023/10/02 04:05:04;;;;;;;12.65;9.00;;;20.90;70.00;;;;;;6213829;23;20004;-78
2023/10/02 04:07:30;;;;;;;13.45;8.95;;;21.00;70.00;;;;;;6187182;23;20059;-77
2023/10/02 04:09:56;;;;;;;15.43;9.05;;;21.00;69.80;;;;;;6213524;23;20473;-77
2023/10/02 04:12:22;;;;;;;12.23;8.82;;;21.00;69.60;;;;;;6214093;23;20000;-78
2023/10/02 04:14:48;;;;;;;11.20;8.48;;;21.00;69.50;;;;;;6187134;23;20075;-77
2023/10/02 04:19:51;;;;;;;15.15;9.38;;;20.90;69.50;;;;;;6214506;23;20032;-77
2023/10/02 04:22:25;;;;;;;13.80;9.30;;;21.00;69.30;;;;;;6213959;23;20004;-79
2023/10/02 04:24:58;;;;;;;13.10;8.45;;;21.00;69.00;;;;;;6187059;23;20019;-78
2023/10/02 04:32:39;;;;;;;13.43;8.15;;;20.90;69.00;;;;;;6217443;23;20040;-77
2023/10/02 04:35:43;;;;;;;12.63;9.25;;;20.90;69.00;;;;;;6227016;23;20028;-78
2023/10/02 04:37:52;;;;;;;13.70;9.02;;;20.90;69.00;;;;;;6237224;23;20005;-77
2023/10/02 04:40:23;;;;;;;19.02;9.02;;;20.80;69.10;;;;;;6216236;23;20011;-76
2023/10/02 04:42:58;;;;;;;15.35;9.32;;;20.80;69.20;;;;;;6216019;23;20339;-79
2023/10/02 04:45:34;;;;;;;13.73;9.25;;;20.80;69.10;;;;;;6215611;23;20032;-78
2023/10/02 04:48:00;;;;;;;15.00;8.82;;;20.80;69.00;;;;;;6215816;23;20331;-77
2023/10/02 04:53:19;;;;;;;14.50;9.10;;;20.80;69.10;;;;;;6218452;23;20085;-77
2023/10/02 04:55:48;;;;;;;13.07;9.30;;;20.80;69.20;;;;;;6188609;23;20327;-77
2023/10/02 04:58:19;;;;;;;13.27;8.80;;;20.80;69.00;;;;;;6188819;23;20015;-76
2023/10/02 05:03:36;;;;;;;13.18;8.07;;;20.70;68.90;;;;;;6215478;23;20032;-78
2023/10/02 05:06:03;;;;;;;11.63;8.38;;;20.60;69.20;;;;;;6215302;23;20044;-78
2023/10/02 05:08:34;;;;;;;14.93;8.55;;;20.60;69.00;;;;;;6215114;23;20064;-80
2023/10/02 05:11:08;;;;;;;15.73;8.20;;;20.60;68.80;;;;;;6215113;23;20017;-78
2023/10/02 05:16:34;;;;;;;15.30;9.48;;;20.60;68.70;;;;;;6215885;23;20035;-78
2023/10/02 05:19:04;;;;;;;11.73;8.57;;;20.50;68.70;;;;;;6215737;23;20079;-79
2023/10/02 05:24:15;;;;;;;12.32;8.13;;;20.50;68.80;;;;;;6215514;23;20019;-78
2023/10/02 05:26:44;;;;;;;12.25;8.18;;;20.50;68.60;;;;;;6215510;23;20500;-78
2023/10/02 05:29:41;;;;;;;11.18;8.10;;;20.50;68.40;;;;;;6215275;23;20012;-78
2023/10/02 05:32:23;;;;;;;10.50;7.80;;;20.50;68.30;;;;;;6214591;23;20016;-79
2023/10/02 05:37:45;;;;;;;20.73;9.23;;;20.50;68.20;;;;;;6215731;23;20067;-79
2023/10/02 05:45:47;;;;;;;17.48;8.98;;;20.40;68.00;;;;;;6218177;23;20063;-78
2023/10/02 05:48:22;;;;;;;11.10;7.70;;;20.30;67.80;;;;;;6215625;23;20016;-79
2023/10/02 05:50:48;;;;;;;11.52;7.80;;;20.40;68.20;;;;;;6214525;23;20020;-78
2023/10/02 05:53:34;;;;;;;12.32;7.90;;;20.50;67.70;;;;;;6215218;23;20076;-78
2023/10/02 05:56:12;;;;;;;12.60;7.75;;;20.40;67.50;;;;;;6215760;23;20100;-80
2023/10/02 05:58:44;;;;;;;17.70;7.40;;;20.50;67.80;;;;;;6215493;23;20009;-78
2023/10/02 06:01:23;;;;;;;15.60;7.50;;;20.50;67.20;;;;;;6215692;23;20075;-78
2023/10/02 06:03:56;;;;;;;16.48;8.18;;;20.60;67.20;;;;;;6215689;23;20457;-79
2023/10/02 06:06:23;;;;;;;13.32;7.50;;;20.80;67.00;;;;;;6215850;23;20415;-78
2023/10/02 06:08:48;;;;;;;13.07;7.72;;;20.90;66.70;;;;;;6215067;23;20361;-79
2023/10/02 06:11:35;;;;;;;14.43;7.25;;;21.10;66.40;;;;;;6215233;23;20031;-79
2023/10/02 06:14:12;;;;;;;12.73;7.93;;;21.20;66.00;;;;;;6215573;23;20441;-77
2023/10/02 06:16:42;;;;;;;13.82;7.53;;;21.40;65.80;;;;;;6215503;23;20431;-77
2023/10/02 06:19:14;;;;;;;10.65;7.10;;;21.60;65.40;;;;;;6188182;23;20366;-77
2023/10/02 06:22:00;;;;;;;13.30;7.72;;;21.90;64.90;;;;;;6215251;23;20032;-77
2023/10/02 06:24:29;;;;;;;14.25;7.75;;;22.00;64.60;;;;;;6215934;23;20043;-79
2023/10/02 06:26:57;;;;;;;17.05;7.63;;;22.20;64.10;;;;;;6214742;23;20446;-76
2023/10/02 06:29:35;;;;;;;12.65;7.40;;;22.40;64.10;;;;;;6214603;23;20431;-78
2023/10/02 06:32:11;;;;;;;14.23;7.32;;;22.60;62.80;;;;;;6214906;23;20016;-78
2023/10/02 06:34:39;;;;;;;13.77;7.40;;;22.70;63.60;;;;;;6215562;23;20020;-77
2023/10/02 06:37:13;;;;;;;14.50;8.40;;;22.90;62.30;;;;;;6214801;23;20076;-77
2023/10/02 06:40:02;;;;;;;15.98;8.07;;;22.90;62.30;;;;;;6190946;23;20004;-79
2023/10/02 06:42:28;;;;;;;13.30;8.02;;;23.10;62.10;;;;;;6221965;23;20512;-79
2023/10/02 06:44:54;;;;;;;23.08;8.82;;;23.20;62.00;;;;;;6225308;23;20001;-78
2023/10/02 06:47:23;;;;;;;14.40;7.45;;;23.30;61.60;;;;;;6220219;23;20068;-79
2023/10/02 06:49:52;;;;;;;20.90;8.18;;;23.40;61.50;;;;;;6215307;23;20012;-79
2023/10/02 06:52:20;;;;;;;14.20;8.10;;;23.50;62.00;;;;;;6215152;23;20004;-78
2023/10/02 06:54:56;;;;;;;16.45;7.30;;;23.70;61.40;;;;;;6214780;23;20005;-78
2023/10/02 06:57:24;;;;;;;15.65;7.80;;;23.80;61.10;;;;;;6214435;23;20007;-79
2023/10/02 06:59:54;;;;;;;12.88;7.60;;;23.90;61.00;;;;;;6214204;23;20008;-78
2023/10/02 07:02:19;;;;;;;11.50;7.65;;;23.90;60.60;;;;;;6214122;23;20008;-79
2023/10/02 07:04:47;;;;;;;14.48;7.80;;;23.80;60.40;;;;;;6214014;23;20008;-80
2023/10/02 07:07:21;;;;;;;13.55;8.10;;;23.80;60.20;;;;;;6214231;23;20005;-79
2023/10/02 07:09:48;;;;;;;15.05;7.68;;;23.90;60.00;;;;;;6214346;23;20024;-78
2023/10/02 07:12:14;;;;;;;11.82;7.90;;;24.00;60.20;;;;;;6187764;23;20090;-78
2023/10/02 07:14:43;;;;;;;15.07;7.70;;;24.10;60.10;;;;;;6214595;23;20001;-81
2023/10/02 07:17:23;;;;;;;11.65;7.22;;;24.20;60.00;;;;;;6214342;23;20312;-78
2023/10/02 07:19:52;;;;;;;16.48;8.20;;;24.30;59.90;;;;;;6214097;23;20035;-79
2023/10/02 07:22:24;;;;;;;18.40;7.82;;;24.30;59.30;;;;;;6214491;23;20004;-79
2023/10/02 07:24:55;;;;;;;13.25;7.57;;;24.40;59.40;;;;;;6214938;23;20016;-79
2023/10/02 07:27:23;;;;;;;18.85;7.88;;;24.40;58.20;;;;;;6214330;23;20063;-81
2023/10/02 07:29:53;;;;;;;12.15;7.38;;;24.30;58.70;;;;;;6187767;23;20082;-80
2023/10/02 07:32:21;;;;;;;13.13;7.28;;;24.30;58.60;;;;;;6214817;23;20020;-80
2023/10/02 07:34:48;;;;;;;11.40;7.57;;;24.30;58.20;;;;;;6187968;23;20343;-79
2023/10/02 07:37:16;;;;;;;17.58;8.85;;;24.40;59.10;;;;;;6214890;23;20371;-78
2023/10/02 07:39:43;;;;;;;17.30;8.40;;;24.30;58.30;;;;;;6214995;23;20008;-79
2023/10/02 07:42:12;;;;;;;13.98;7.97;;;24.40;58.40;;;;;;6214632;23;20096;-78
2023/10/02 07:44:38;;;;;;;16.95;8.57;;;24.40;58.50;;;;;;6214904;23;20032;-79
2023/10/02 07:47:10;;;;;;;21.00;8.20;;;24.40;58.20;;;;;;6214740;23;20335;-79
2023/10/02 07:49:51;;;;;;;20.95;8.70;;;24.40;58.00;;;;;;6214417;23;20009;-79
2023/10/02 07:52:29;;;;;;;16.88;7.75;;;24.30;58.20;;;;;;6187922;23;20059;-78
2023/10/02 07:54:59;;;;;;;14.95;8.30;;;24.30;58.30;;;;;;6214799;23;20024;-79
2023/10/02 07:57:32;;;;;;;15.10;7.95;;;24.20;58.20;;;;;;6215128;23;20009;-79
2023/10/02 08:02:49;;;;;;;16.63;8.55;;;24.00;57.90;;;;;;6214381;23;20015;-79
2023/10/02 08:05:19;;;;;;;20.85;8.95;;;24.00;58.00;;;;;;6214781;23;20027;-79
2023/10/02 08:07:45;;;;;;;14.05;7.95;;;23.90;57.80;;;;;;6214213;23;20004;-79
2023/10/02 08:10:11;;;;;;;15.23;8.85;;;23.90;58.20;;;;;;6214559;23;20040;-81
2023/10/02 08:12:39;;;;;;;17.90;8.60;;;23.90;58.30;;;;;;6214222;23;20047;-80
2023/10/02 08:15:29;;;;;;;15.98;7.55;;;23.90;58.30;;;;;;6214480;23;20024;-79
2023/10/02 08:20:32;;;;;;;12.90;7.40;;;24.00;58.50;;;;;;6215047;23;20031;-79
2023/10/02 08:23:02;;;;;;;15.85;8.10;;;24.00;58.10;;;;;;6214388;23;20011;-80
2023/10/02 08:25:27;;;;;;;19.48;8.30;;;24.00;58.40;;;;;;6214409;23;20327;-81
2023/10/02 08:27:57;;;;;;;28.13;9.45;;;24.00;58.00;;;;;;6214657;23;19997;-80
2023/10/02 08:30:36;;;;;;;16.95;8.77;;;24.00;58.30;;;;;;6214503;23;20356;-80
2023/10/02 08:33:07;;;;;;;19.85;8.25;;;24.00;58.40;;;;;;6214540;23;20016;-78
2023/10/02 08:35:46;;;;;;;20.52;8.30;;;24.10;58.30;;;;;;6216611;23;20032;-79
2023/10/02 08:38:21;;;;;;;22.38;8.90;;;24.00;58.10;;;;;;6216509;23;20079;-79
2023/10/02 08:41:00;;;;;;;14.63;8.90;;;24.10;58.70;;;;;;6215288;23;20049;-80
2023/10/02 08:43:27;;;;;;;17.58;8.25;;;24.10;58.70;;;;;;6214520;23;20370;-80
2023/10/02 08:45:54;;;;;;;14.45;8.40;;;24.10;58.40;;;;;;6187804;23;20115;-81
2023/10/02 08:48:21;;;;;;;17.98;9.40;;;24.10;58.10;;;;;;6213972;23;20031;-80
2023/10/02 08:50:50;;;;;;;13.35;8.45;;;24.20;58.30;;;;;;6214050;23;20339;-81
2023/10/02 08:53:23;;;;;;;16.65;8.40;;;24.30;58.20;;;;;;6214482;23;20464;-80
2023/10/02 08:56:00;;;;;;;20.37;9.77;;;24.30;58.10;;;;;;6214121;23;20108;-80
2023/10/02 08:58:27;;;;;;;20.08;8.98;;;24.30;58.20;;;;;;6214044;23;20252;-81
2023/10/02 09:03:44;;;;;;;19.27;10.00;;;24.40;57.40;;;;;;6216371;23;20047;-79
2023/10/02 09:11:36;;;;;;;17.42;9.07;;;24.60;57.60;;;;;;6214247;23;20043;-80
2023/10/02 09:14:22;;;;;;;19.20;9.55;;;24.60;57.50;;;;;;6213651;23;20047;-79
2023/10/02 09:17:12;;;;;;;17.65;10.48;;;24.70;57.40;;;;;;6187165;23;20043;-79
2023/10/02 09:19:39;;;;;;;22.08;9.60;;;24.80;57.10;;;;;;6214439;23;20079;-79
2023/10/02 09:22:13;;;;;;;23.45;13.45;;;24.90;57.80;;;;;;6213677;23;20088;-80
2023/10/02 09:24:40;;;;;;;20.27;12.73;;;24.90;57.00;;;;;;6214011;23;20375;-80
2023/10/02 09:27:28;;;;;;;20.00;11.38;;;25.00;56.90;;;;;;6214552;23;20438;-79
2023/10/02 09:30:16;;;;;;;20.30;10.35;;;25.00;56.90;;;;;;6188580;23;20012;-80
2023/10/02 09:32:52;;;;;;;27.88;10.40;;;25.10;57.00;;;;;;6214948;23;20362;-80
2023/10/02 09:35:42;;;;;;;21.52;10.57;;;25.10;57.10;;;;;;6214935;23;20005;-79
2023/10/02 09:38:16;;;;;;;21.60;11.00;;;25.20;56.60;;;;;;6214832;23;20481;-79
2023/10/02 09:43:30;;;;;;;18.48;9.98;;;25.30;56.80;;;;;;6216308;23;20083;-81
2023/10/02 09:46:15;;;;;;;21.52;10.27;;;25.40;56.50;;;;;;6214701;23;20004;-80
2023/10/02 09:49:04;;;;;;;19.58;10.70;;;25.50;56.60;;;;;;6215288;23;20382;-80
2023/10/02 09:52:16;;;;;;;22.60;10.02;;;25.60;56.30;;;;;;6214911;23;20016;-80
2023/10/02 09:55:09;;;;;;;18.38;10.10;;;25.70;55.90;;;;;;6215410;23;20004;-79
2023/10/02 09:57:49;;;;;;;19.60;10.57;;;25.70;55.80;;;;;;6214857;23;20004;-80
2023/10/02 10:00:34;;;;;;;24.42;10.48;;;25.80;56.20;;;;;;6214920;23;20000;-80
2023/10/02 10:03:24;;;;;;;18.02;9.77;;;25.90;56.30;;;;;;6215330;23;20335;-80
2023/10/02 10:06:08;;;;;;;21.13;9.85;;;26.00;55.60;;;;;;6214872;23;20007;-79
2023/10/02 10:14:42;;;;;;;26.67;9.63;;;26.20;55.30;;;;;;6214984;23;20023;-79
2023/10/02 10:17:17;;;;;;;14.35;8.63;;;26.30;55.80;;;;;;6214327;23;20438;-78
2023/10/02 10:20:07;;;;;;;15.60;8.43;;;26.30;55.90;;;;;;6214829;23;20082;-79
2023/10/02 10:22:39;;;;;;;16.80;10.20;;;26.40;56.20;;;;;;6214499;23;20015;-78
2023/10/02 10:25:35;;;;;;;21.08;10.13;;;26.50;55.70;;;;;;6214806;23;20035;-79
2023/10/02 10:30:33;;;;;;;16.30;9.50;;;26.60;55.30;;;;;;6214857;23;20020;-80
2023/10/02 10:35:51;;;;;;;18.65;10.23;;;26.70;54.70;;;;;;6215134;23;20074;-79
2023/10/02 10:40:59;;;;;;;24.70;10.95;;;26.80;54.70;;;;;;6214557;23;20009;-79
2023/10/02 10:43:26;;;;;;;26.98;11.77;;;27.00;54.20;;;;;;6214511;23;20418;-80
2023/10/02 10:45:54;;;;;;;19.30;10.07;;;27.00;54.10;;;;;;6214809;23;20015;-81
2023/10/02 10:48:23;;;;;;;17.60;9.75;;;27.10;54.80;;;;;;6214719;23;20000;-80
2023/10/02 10:51:06;;;;;;;13.90;8.73;;;27.10;54.20;;;;;;6214806;23;20099;-80
2023/10/02 10:53:41;;;;;;;17.92;9.30;;;27.20;54.00;;;;;;6215044;23;20013;-81
2023/10/02 10:56:19;;;;;;;18.58;10.68;;;27.20;54.20;;;;;;6223209;23;20035;-79
2023/10/02 10:58:47;;;;;;;21.60;10.50;;;27.30;53.80;;;;;;6217350;23;20004;-82
2023/10/02 11:01:20;;;;;;;22.52;10.20;;;27.40;53.70;;;;;;6217052;23;20007;-81
2023/10/02 11:03:54;;;;;;;19.35;10.32;;;27.50;53.50;;;;;;6216465;23;20431;-79
2023/10/02 11:06:21;;;;;;;15.90;9.48;;;27.50;53.10;;;;;;6215851;23;20004;-81
2023/10/02 11:09:12;;;;;;;17.27;9.88;;;27.50;53.40;;;;;;6214802;23;20543;-80
2023/10/02 11:11:49;;;;;;;15.93;9.18;;;27.60;52.90;;;;;;6214747;23;20028;-80
2023/10/02 11:14:21;;;;;;;20.52;10.35;;;27.70;53.30;;;;;;6214821;23;20517;-81
2023/10/02 11:16:54;;;;;;;19.42;10.93;;;27.70;53.30;;;;;;6214865;23;20008;-81
2023/10/02 11:19:34;;;;;;;16.58;9.52;;;27.80;53.00;;;;;;6215100;23;20009;-79
2023/10/02 11:22:14;;;;;;;18.10;9.93;;;27.90;52.90;;;;;;6214678;23;20426;-79
2023/10/02 11:24:53;;;;;;;16.73;10.65;;;28.00;51.80;;;;;;6214661;23;20378;-80
2023/10/02 11:27:23;;;;;;;20.85;10.77;;;28.10;51.50;;;;;;6214925;23;20071;-79
2023/10/02 11:30:02;;;;;;;19.50;10.60;;;28.20;51.90;;;;;;6215010;23;20403;-79
2023/10/02 11:32:59;;;;;;;16.70;9.52;;;28.20;51.70;;;;;;6214611;23;20425;-79
2023/10/02 11:35:28;;;;;;;20.38;10.43;;;28.30;51.10;;;;;;6215097;23;20374;-80
2023/10/02 11:37:55;;;;;;;15.80;9.48;;;28.40;51.10;;;;;;6189281;23;20015;-80
2023/10/02 11:40:25;;;;;;;18.58;10.43;;;28.50;51.10;;;;;;6214754;23;20366;-81
2023/10/02 11:42:53;;;;;;;19.00;11.27;;;28.50;50.70;;;;;;6214777;23;20011;-80
2023/10/02 11:45:19;;;;;;;19.65;10.55;;;28.60;50.30;;;;;;6214982;23;20411;-80
2023/10/02 11:47:45;;;;;;;18.55;10.75;;;28.70;49.90;;;;;;6214916;23;20008;-80
2023/10/02 11:50:15;;;;;;;15.77;9.52;;;28.70;49.80;;;;;;6214417;23;20453;-80
2023/10/02 11:52:41;;;;;;;20.77;10.05;;;28.80;49.30;;;;;;6215114;23;20324;-80
2023/10/02 11:55:07;;;;;;;14.75;9.43;;;28.80;50.00;;;;;;6214811;23;20055;-80
2023/10/02 11:57:33;;;;;;;17.67;10.73;;;28.80;50.10;;;;;;6214894;23;20007;-81
2023/10/02 12:00:08;;;;;;;17.98;10.13;;;28.80;50.30;;;;;;6214606;23;20005;-81
2023/10/02 12:02:34;;;;;;;18.48;10.15;;;28.90;50.60;;;;;;6188113;23;20012;-80
2023/10/02 12:05:00;;;;;;;21.60;11.10;;;28.90;50.80;;;;;;6215204;23;20012;-82
2023/10/02 12:07:26;;;;;;;20.02;10.98;;;29.00;50.90;;;;;;6214659;23;20304;-81
2023/10/02 12:09:53;;;;;;;19.10;10.00;;;29.00;50.80;;;;;;6214613;23;20023;-80
2023/10/02 12:12:19;;;;;;;16.50;10.00;;;29.00;50.90;;;;;;6215239;23;20008;-81
2023/10/02 12:14:45;;;;;;;20.30;10.23;;;29.10;50.90;;;;;;6215261;23;20003;-80
2023/10/02 12:17:14;;;;;;;18.42;10.55;;;29.10;51.10;;;;;;6214907;23;20004;-80
2023/10/02 12:19:41;;;;;;;18.80;10.60;;;29.10;50.60;;;;;;6189351;23;20446;-80
2023/10/02 12:22:07;;;;;;;16.85;10.00;;;29.20;51.20;;;;;;6214801;23;20009;-81
2023/10/02 12:24:37;;;;;;;19.92;11.38;;;29.20;51.10;;;;;;6214046;23;20000;-79
2023/10/02 12:27:04;;;;;;;19.13;10.60;;;29.20;51.20;;;;;;6187818;23;20091;-79
2023/10/02 12:29:30;;;;;;;18.67;9.52;;;29.20;51.30;;;;;;6214669;23;20043;-80
2023/10/02 12:32:00;;;;;;;15.80;9.57;;;29.20;51.30;;;;;;6215343;23;20009;-80
2023/10/02 12:34:27;;;;;;;17.58;9.88;;;29.20;51.70;;;;;;6215251;23;19997;-81
2023/10/02 12:36:54;;;;;;;15.82;9.77;;;29.20;52.60;;;;;;6214736;23;20000;-80
2023/10/02 12:39:28;;;;;;;15.70;9.48;;;29.20;53.00;;;;;;6214591;23;20004;-81
2023/10/02 12:41:55;;;;;;;17.42;10.23;;;29.30;53.00;;;;;;6214953;23;20335;-79
2023/10/02 12:44:21;;;;;;;15.45;10.15;;;29.30;53.30;;;;;;6214839;23;20051;-80
2023/10/02 12:46:50;;;;;;;14.65;9.27;;;29.20;53.30;;;;;;6214860;23;20367;-82
2023/10/02 12:49:21;;;;;;;18.00;9.52;;;29.30;53.40;;;;;;6214703;23;20411;-80
2023/10/02 12:51:50;;;;;;;15.18;10.10;;;29.30;53.10;;;;;;6214177;23;20017;-80
2023/10/02 12:54:15;;;;;;;17.35;10.20;;;29.30;53.70;;;;;;6214873;23;20004;-80
2023/10/02 12:56:45;;;;;;;12.57;8.35;;;29.30;53.80;;;;;;6214515;23;20004;-80
2023/10/02 12:59:11;;;;;;;14.02;9.23;;;29.30;53.80;;;;;;6214407;23;20416;-80
2023/10/02 13:01:37;;;;;;;15.13;9.50;;;29.30;53.90;;;;;;6216174;23;20001;-81
2023/10/02 13:04:03;;;;;;;15.80;9.23;;;29.40;54.10;;;;;;6217341;23;20005;-79
2023/10/02 13:06:33;;;;;;;14.05;9.45;;;29.40;53.80;;;;;;6217561;23;20331;-81
2023/10/02 13:09:09;;;;;;;15.30;9.05;;;29.30;53.70;;;;;;6227404;23;20048;-80
2023/10/02 13:11:39;;;;;;;12.52;8.38;;;29.40;53.40;;;;;;6229616;23;20008;-80
2023/10/02 13:14:06;;;;;;;17.10;8.77;;;29.40;53.90;;;;;;6226208;23;20012;-82
2023/10/02 13:16:32;;;;;;;17.55;9.00;;;29.40;54.00;;;;;;6217328;23;20004;-81
2023/10/02 13:18:58;;;;;;;13.55;8.48;;;29.50;53.70;;;;;;6217212;23;20024;-81
2023/10/02 13:21:24;;;;;;;14.05;8.50;;;29.50;53.80;;;;;;6216825;23;20001;-81
2023/10/02 13:23:51;;;;;;;16.15;9.02;;;29.50;53.80;;;;;;6216649;23;20032;-81
2023/10/02 13:26:18;;;;;;;12.60;8.75;;;29.50;54.00;;;;;;6216384;23;20075;-80
2023/10/02 13:28:48;;;;;;;16.63;9.02;;;29.50;54.40;;;;;;6216272;23;20008;-80
2023/10/02 13:31:16;;;;;;;17.77;8.98;;;29.50;54.30;;;;;;6216081;23;20013;-82
2023/10/02 13:33:52;;;;;;;14.30;8.45;;;29.50;54.80;;;;;;6216238;23;20008;-79
2023/10/02 13:36:27;;;;;;;16.13;8.70;;;29.50;54.60;;;;;;6216040;23;20001;-80
2023/10/02 13:38:56;;;;;;;19.48;9.05;;;29.50;54.50;;;;;;6216251;23;20008;-80
2023/10/02 13:41:22;;;;;;;12.50;8.88;;;29.50;54.70;;;;;;6215982;23;20386;-81
2023/10/02 13:43:49;;;;;;;15.30;8.80;;;29.50;55.10;;;;;;6215954;23;19997;-78
2023/10/02 13:46:20;;;;;;;16.10;8.20;;;29.40;55.10;;;;;;6215580;23;20005;-80
2023/10/02 13:48:46;;;;;;;16.38;9.00;;;29.50;55.20;;;;;;6215311;23;20000;-81
2023/10/02 13:51:13;;;;;;;15.85;9.02;;;29.50;55.20;;;;;;6215889;23;20116;-82
2023/10/02 13:53:42;;;;;;;12.10;8.05;;;29.50;55.30;;;;;;6216204;23;20376;-81
2023/10/02 13:56:10;;;;;;;13.20;8.20;;;29.50;55.30;;;;;;6215826;23;20407;-79
2023/10/02 13:58:41;;;;;;;14.05;8.48;;;29.60;55.20;;;;;;6215702;23;19997;-82
2023/10/02 14:01:08;;;;;;;19.23;9.60;;;29.60;54.50;;;;;;6216258;23;20382;-81
2023/10/02 14:03:35;;;;;;;16.33;8.73;;;29.60;55.10;;;;;;6215541;23;20035;-80
2023/10/02 14:06:08;;;;;;;14.02;9.07;;;29.60;55.50;;;;;;6215807;23;20284;-82